Sultan Atasoy — TCYG9 — position and weather

sailwx.info

Track history (hours):
 
Tides and Currents Weather Stations Pressure Air Temp Water Temp Dewpoint Dewpoint Depression Visibility Wind Speed Wind Dir Waves Ship Positions

Sultan Atasoy

Last reported at 2017-Feb-14 15:06 UTC. Time now 2017-Feb-24 15:15 UTC.
Position N 43°56' E 038°32'.
Warning: this ship's position is 10 days out of date.

Length 109 m; draft 7 m.

Type: Ship. MMSI: 271040963.

Date/timePositionNaut miles runAvg speedWind from/ knotsBaromVisibWave heightAir tempDewpointWater temp
2017-Feb-14 15:06N 43°56' E 038°32'611.2
2017-Feb-14 14:33N 43°58' E 038°40'1111.3
2017-Feb-14 13:33N 44°01' E 038°55'8 7.6
2017-Feb-14 12:32N 44°06' E 039°04'0 0.0
2017-Feb-14 11:32N 44°06' E 039°04'0 0.0
2017-Feb-14 10:32N 44°06' E 039°04'0 0.0
2017-Feb-14 09:32N 44°06' E 039°04'0 0.0
2017-Feb-14 08:32N 44°06' E 039°04'0 0.0
2017-Feb-14 07:32N 44°06' E 039°04'0 0.0
2017-Feb-14 06:32N 44°06' E 039°04'0 0.0
2017-Feb-14 05:32N 44°06' E 039°04'0 0.0
2017-Feb-14 04:32N 44°06' E 039°04'0 0.0
2017-Feb-14 03:32N 44°06' E 039°04'0 0.0
2017-Feb-14 02:32N 44°06' E 039°04'0 0.0
2017-Feb-14 01:32N 44°06' E 039°04'0 0.0
2017-Feb-14 00:32N 44°06' E 039°04'0 0.0
2017-Feb-13 23:32N 44°06' E 039°04'0 0.0
2017-Feb-13 22:32N 44°06' E 039°04'0 0.0
2017-Feb-13 21:32N 44°06' E 039°04'0 0.0
2017-Feb-13 20:32N 44°06' E 039°04'0 0.0
2017-Feb-13 19:32N 44°06' E 039°04'0 0.0
2017-Feb-13 18:32N 44°06' E 039°04'0 0.0
2017-Feb-13 17:32N 44°06' E 039°04'0 0.0
2017-Feb-13 16:32N 44°06' E 039°04'0 0.0
2017-Feb-13 15:32N 44°06' E 039°04'0 0.0
2017-Feb-13 14:32N 44°06' E 039°04'1 1.5
2017-Feb-13 13:34N 44°04' E 039°03'1 1.0
2017-Feb-13 12:33N 44°04' E 039°02'0 0.0
2017-Feb-13 11:33N 44°04' E 039°02'0 0.0
2017-Feb-13 10:33N 44°04' E 039°02'0 0.0
2017-Feb-13 09:33N 44°04' E 039°02'0 0.0
2017-Feb-13 08:33N 44°04' E 039°02'0 0.0
2017-Feb-13 07:30N 44°04' E 039°02'0 0.0
2017-Feb-13 06:33N 44°04' E 039°02'0 0.0
2017-Feb-13 05:33N 44°04' E 039°02'0 0.0
2017-Feb-13 04:33N 44°04' E 039°02'0 0.0
2017-Feb-13 03:33N 44°04' E 039°02'0 0.0
2017-Feb-13 02:33N 44°04' E 039°02'0 0.0
2017-Feb-13 01:30N 44°04' E 039°02'0 0.0
2017-Feb-13 00:33N 44°04' E 039°02'0 0.0
2017-Feb-12 23:33N 44°04' E 039°02'0 0.0
2017-Feb-12 22:33N 44°04' E 039°02'0 0.0
2017-Feb-12 21:33N 44°04' E 039°02'0 0.0
2017-Feb-12 20:33N 44°04' E 039°02'0 0.0
2017-Feb-12 19:33N 44°04' E 039°02'0 0.0
2017-Feb-12 18:33N 44°04' E 039°02'0 0.0
2017-Feb-12 17:33N 44°04' E 039°02'0 0.0
2017-Feb-12 16:33N 44°04' E 039°02'0 0.0
2017-Feb-12 15:33N 44°04' E 039°02'0 0.0
2017-Feb-12 14:33N 44°04' E 039°02'0 0.0
2017-Feb-12 13:33N 44°04' E 039°02'0 0.1
2017-Feb-12 12:34N 44°04' E 039°02'10 9.6
2017-Feb-12 11:33N 43°58' E 038°52'1110.6
2017-Feb-12 10:33N 43°53' E 038°39'  
Track history (hours):
 
Tides and Currents Weather Stations Pressure Air Temp Water Temp Dewpoint Dewpoint Depression Visibility Wind Speed Wind Dir Waves Ship Positions

Sultan Atasoy

Last reported at 2017-Feb-14 15:06 UTC. Time now 2017-Feb-24 15:15 UTC.
Position N 43°56' E 038°32'.
Warning: this ship's position is 10 days out of date.

Length 109 m; draft 7 m.

Type: Ship. MMSI: 271040963.

Date/timePositionNaut miles runAvg speedWind from/ knotsBaromVisibWave heightAir tempDewpointWater temp
2017-Feb-14 15:06N 43°56' E 038°32'611.2
2017-Feb-14 14:33N 43°58' E 038°40'1111.3
2017-Feb-14 13:33N 44°01' E 038°55'8 7.6
2017-Feb-14 12:32N 44°06' E 039°04'0 0.0
2017-Feb-14 11:32N 44°06' E 039°04'0 0.0
2017-Feb-14 10:32N 44°06' E 039°04'0 0.0
2017-Feb-14 09:32N 44°06' E 039°04'0 0.0
2017-Feb-14 08:32N 44°06' E 039°04'0 0.0
2017-Feb-14 07:32N 44°06' E 039°04'0 0.0
2017-Feb-14 06:32N 44°06' E 039°04'0 0.0
2017-Feb-14 05:32N 44°06' E 039°04'0 0.0
2017-Feb-14 04:32N 44°06' E 039°04'0 0.0
2017-Feb-14 03:32N 44°06' E 039°04'0 0.0
2017-Feb-14 02:32N 44°06' E 039°04'0 0.0
2017-Feb-14 01:32N 44°06' E 039°04'0 0.0
2017-Feb-14 00:32N 44°06' E 039°04'0 0.0
2017-Feb-13 23:32N 44°06' E 039°04'0 0.0
2017-Feb-13 22:32N 44°06' E 039°04'0 0.0
2017-Feb-13 21:32N 44°06' E 039°04'0 0.0
2017-Feb-13 20:32N 44°06' E 039°04'0 0.0
2017-Feb-13 19:32N 44°06' E 039°04'0 0.0
2017-Feb-13 18:32N 44°06' E 039°04'0 0.0
2017-Feb-13 17:32N 44°06' E 039°04'0 0.0
2017-Feb-13 16:32N 44°06' E 039°04'0 0.0
2017-Feb-13 15:32N 44°06' E 039°04'0 0.0
2017-Feb-13 14:32N 44°06' E 039°04'1 1.5
2017-Feb-13 13:34N 44°04' E 039°03'1 1.0
2017-Feb-13 12:33N 44°04' E 039°02'0 0.0
2017-Feb-13 11:33N 44°04' E 039°02'0 0.0
2017-Feb-13 10:33N 44°04' E 039°02'0 0.0
2017-Feb-13 09:33N 44°04' E 039°02'0 0.0
2017-Feb-13 08:33N 44°04' E 039°02'0 0.0
2017-Feb-13 07:30N 44°04' E 039°02'0 0.0
2017-Feb-13 06:33N 44°04' E 039°02'0 0.0
2017-Feb-13 05:33N 44°04' E 039°02'0 0.0
2017-Feb-13 04:33N 44°04' E 039°02'0 0.0
2017-Feb-13 03:33N 44°04' E 039°02'0 0.0
2017-Feb-13 02:33N 44°04' E 039°02'0 0.0
2017-Feb-13 01:30N 44°04' E 039°02'0 0.0
2017-Feb-13 00:33N 44°04' E 039°02'0 0.0
2017-Feb-12 23:33N 44°04' E 039°02'0 0.0
2017-Feb-12 22:33N 44°04' E 039°02'0 0.0
2017-Feb-12 21:33N 44°04' E 039°02'0 0.0
2017-Feb-12 20:33N 44°04' E 039°02'0 0.0
2017-Feb-12 19:33N 44°04' E 039°02'0 0.0
2017-Feb-12 18:33N 44°04' E 039°02'0 0.0
2017-Feb-12 17:33N 44°04' E 039°02'0 0.0
2017-Feb-12 16:33N 44°04' E 039°02'0 0.0
2017-Feb-12 15:33N 44°04' E 039°02'0 0.0
2017-Feb-12 14:33N 44°04' E 039°02'0 0.0
2017-Feb-12 13:33N 44°04' E 039°02'0 0.1
2017-Feb-12 12:34N 44°04' E 039°02'10 9.6
2017-Feb-12 11:33N 43°58' E 038°52'1110.6
2017-Feb-12 10:33N 43°53' E 038°39'  

Dump ship's entire track history